Data for 02/21/2018

Time Sea-Level Adjusted Pressure Absolute Pressure Temperature Relative Humidity Dew Point   
(mb) (inHg) (mb) (inHg) (C) (F) (%) (C) (F)
00:05 1018 30.06 847 25.01 -18.1 -0.6 69 -22.5 -8.5
00:10 1018 30.06 847 25.01 -18.2 -0.8 69 -22.6 -8.8
00:15 1018 30.06 847 25.01 -18.4 -1.2 71 -22.5 -8.5
00:20 1018 30.06 847 25.01 -18.3 -0.9 71 -22.4 -8.2
00:25 1018 30.06 847 25.01 -17.9 -0.2 71 -21.9 -7.4
00:30 1018 30.06 847 25.01 -18.1 -0.5 71 -22.1 -7.8
00:35 1018 30.06 847 25.01 -18.2 -0.7 71 -22.1 -7.8
00:40 1018 30.06 848 25.04 -18.2 -0.7 69 -22.5 -8.5
00:45 1018 30.06 848 25.04 -18.2 -0.8 69 -22.6 -8.7
00:50 1018 30.06 848 25.04 -18.2 -0.8 69 -22.6 -8.7
00:55 1018 30.06 848 25.04 -18.2 -0.8 70 -22.5 -8.5
01:00 1018 30.06 847 25.01 -18.2 -0.7 69 -22.6 -8.7
01:05 1018 30.06 847 25.01 -18.3 -0.9 69 -22.6 -8.7
01:10 1018 30.06 847 25.01 -18.3 -0.9 69 -22.7 -8.8
01:15 1018 30.06 847 25.01 -18.3 -1 69 -22.7 -8.9
01:20 1018 30.06 847 25.01 -17.8 -0.1 68 -22.4 -8.4
01:25 1018 30.06 847 25.01 -17.5 0.4 66 -22.5 -8.6
01:30 1018 30.06 847 25.01 -17.8 0 66 -22.6 -8.8
01:35 1018 30.06 847 25.01 -18.2 -0.8 69 -22.7 -8.8
01:40 1018 30.06 847 25.01 -18.2 -0.8 68 -22.7 -8.9
01:45 1018 30.06 847 25.01 -18.3 -1 70 -22.5 -8.5
01:50 1018 30.06 847 25.01 -18.3 -0.9 70 -22.5 -8.5
01:55 1018 30.06 847 25.01 -17.9 -0.2 68 -22.4 -8.3
02:00 1018 30.06 847 25.01 -17.3 0.8 66 -22.2 -8
02:05 1018 30.06 848 25.04 -17.2 1.1 66 -22.1 -7.9
02:10 1018 30.06 848 25.04 -17.4 0.7 65 -22.4 -8.4
02:15 1018 30.06 848 25.04 -17.3 0.9 65 -22.4 -8.2
02:20 1018 30.06 848 25.04 -17.5 0.5 66 -22.4 -8.4
02:25 1018 30.06 848 25.04 -17.5 0.6 67 -22.2 -8
02:30 1018 30.06 848 25.04 -17.3 0.8 67 -22 -7.7
02:35 1018 30.06 848 25.04 -17.3 1 68 -21.8 -7.2
02:40 1018 30.06 848 25.04 -17.3 0.9 69 -21.7 -7.1
02:45 1018 30.06 848 25.04 -17.3 0.9 70 -21.5 -6.8
02:50 1018 30.06 848 25.04 -17.3 0.9 70 -21.5 -6.7
02:55 1018 30.06 848 25.04 -17.4 0.7 70 -21.5 -6.8
03:00 1018 30.06 848 25.04 -17.6 0.3 71 -21.6 -6.9
03:05 1018 30.06 848 25.04 -17.9 -0.2 72 -21.7 -7.1
03:10 1018 30.06 848 25.04 -18 -0.5 73 -21.8 -7.2
03:15 1018 30.06 848 25.04 -18 -0.4 74 -21.6 -6.9
03:20 1018 30.06 848 25.04 -17.9 -0.2 73 -21.5 -6.8
03:25 1018 30.06 848 25.04 -18 -0.4 74 -21.6 -6.8
03:30 1018 30.06 848 25.04 -17.9 -0.1 74 -21.4 -6.5
03:35 1018 30.06 848 25.04 -17.7 0.1 74 -21.2 -6.2
03:40 1018 30.06 848 25.04 -17.7 0.1 74 -21.3 -6.3
03:45 1018 30.06 848 25.04 -17.7 0.2 73 -21.4 -6.6
03:50 1018 30.06 848 25.04 -17.6 0.2 73 -21.4 -6.6
03:55 1018 30.06 848 25.04 -17.5 0.5 74 -21.1 -6
04:00 1018 30.06 848 25.04 -17.5 0.5 71 -21.6 -6.9
04:05 1018 30.06 848 25.04 -17.4 0.7 71 -21.5 -6.6
04:10 1018 30.06 848 25.04 -17.3 0.8 71 -21.4 -6.5
04:15 1018 30.06 848 25.04 -17.5 0.5 73 -21.2 -6.2
04:20 1018 30.06 848 25.04 -17.6 0.4 71 -21.6 -6.9
04:25 1018 30.06 848 25.04 -18.1 -0.5 72 -21.9 -7.4
04:30 1019 30.09 848 25.04 -18.5 -1.3 74 -22.1 -7.7
04:35 1019 30.09 848 25.04 -18.5 -1.3 77 -21.6 -6.8
04:40 1018 30.06 848 25.04 -18.2 -0.7 73 -21.9 -7.4
04:45 1018 30.06 848 25.04 -18.3 -0.9 74 -21.8 -7.3
04:50 1018 30.06 848 25.04 -18 -0.3 76 -21.2 -6.1
04:55 1018 30.06 848 25.04 -17.7 0.1 72 -21.7 -7
05:00 1018 30.06 848 25.04 -17.6 0.3 73 -21.4 -6.4
05:05 1018 30.06 848 25.04 -17.6 0.3 75 -21.1 -6
05:10 1018 30.06 848 25.04 -17.7 0.2 73 -21.5 -6.6
05:15 1018 30.06 848 25.04 -17.6 0.4 68 -22.1 -7.8
05:20 1018 30.06 848 25.04 -17 1.4 66 -21.9 -7.5
05:25 1018 30.06 848 25.04 -17.1 1.2 67 -21.8 -7.3
05:30 1018 30.06 848 25.04 -17.2 1.1 69 -21.6 -6.8
05:35 1018 30.06 848 25.04 -17.1 1.3 68 -21.6 -6.9
05:40 1018 30.06 848 25.04 -17 1.4 68 -21.5 -6.7